Time;durP1;ratioP1;P1;durP2;ratioP2;P2;SDS_P1;SDS_P2;PMS_P1;PMS_P2;Temp;Humidity;BMP_temperature;BMP_pressure;BME280_temperature;BME280_humidity;BME280_pressure;Samples;Min_cycle;Max_cycle;Signal;HPM_P1;HPM_P2
2022/03/21 00:01:16;;;;;;;16.50;8.07;;;;;;;6.12;45.32;100118.63;5014251;28;20445;-67
2022/03/21 00:03:42;;;;;;;17.23;8.40;;;;;;;6.22;44.72;100116.78;5025539;28;20075;-68
2022/03/21 00:06:07;;;;;;;18.05;8.15;;;;;;;6.21;44.90;100090.03;5017392;28;20068;-67
2022/03/21 00:08:33;;;;;;;15.65;8.00;;;;;;;6.33;45.27;100115.78;5017776;28;20026;-67
2022/03/21 00:10:58;;;;;;;16.17;7.28;;;;;;;6.30;45.22;100108.84;5021416;28;20192;-68
2022/03/21 00:13:24;;;;;;;15.20;6.93;;;;;;;6.35;45.03;100116.50;5018147;28;20387;-67
2022/03/21 00:15:52;;;;;;;13.38;7.45;;;;;;;6.22;45.25;100113.25;5024207;28;20109;-67
2022/03/21 00:18:17;;;;;;;12.13;6.60;;;;;;;6.21;44.63;100123.16;5024042;28;20025;-67
2022/03/21 00:20:45;;;;;;;15.75;7.25;;;;;;;6.12;45.35;100113.25;5019166;28;20120;-67
2022/03/21 00:23:11;;;;;;;12.15;6.93;;;;;;;6.03;45.57;100114.13;5025402;28;20037;-68
2022/03/21 00:25:37;;;;;;;19.27;7.82;;;;;;;5.77;45.69;100117.31;5020371;28;20487;-67
2022/03/21 00:28:02;;;;;;;11.95;7.03;;;;;;;5.71;46.06;100125.91;5018820;28;20029;-67
2022/03/21 00:30:29;;;;;;;17.55;7.75;;;;;;;5.60;47.38;100116.16;5019635;28;20053;-67
2022/03/21 00:32:55;;;;;;;13.55;7.72;;;;;;;5.52;46.41;100107.97;5023131;28;20064;-67
2022/03/21 00:35:20;;;;;;;13.55;7.78;;;;;;;5.42;46.40;100118.69;5024282;28;20053;-67
2022/03/21 00:37:46;;;;;;;15.18;7.60;;;;;;;5.59;46.42;100122.53;5025424;28;20797;-67
2022/03/21 00:40:14;;;;;;;14.38;7.30;;;;;;;5.71;45.95;100118.75;5023588;28;20033;-67
2022/03/21 00:42:40;;;;;;;12.32;6.75;;;;;;;5.71;45.58;100113.38;5019920;28;20108;-67
2022/03/21 00:45:09;;;;;;;15.57;6.65;;;;;;;5.69;45.91;100103.75;5021526;28;20489;-68
2022/03/21 00:47:35;;;;;;;13.03;7.43;;;;;;;5.36;48.46;100104.97;5023710;28;20128;-68
2022/03/21 00:50:02;;;;;;;12.13;6.82;;;;;;;5.12;49.57;100119.59;5022091;28;20390;-67
2022/03/21 00:52:28;;;;;;;14.27;8.00;;;;;;;5.02;49.93;100122.22;5022310;28;20044;-67
2022/03/21 00:54:54;;;;;;;14.77;7.57;;;;;;;4.81;49.90;100124.13;5017963;28;20336;-67
2022/03/21 00:57:20;;;;;;;15.15;7.60;;;;;;;4.81;49.74;100116.91;5021318;28;20029;-67
2022/03/21 00:59:45;;;;;;;15.48;7.50;;;;;;;4.79;50.51;100115.34;5024684;28;20037;-67
2022/03/21 01:02:12;;;;;;;15.68;7.88;;;;;;;4.77;49.87;100125.38;5020888;28;20522;-68
2022/03/21 01:04:37;;;;;;;12.68;7.30;;;;;;;4.68;50.08;100127.00;5020299;28;20073;-67
2022/03/21 01:07:03;;;;;;;12.20;7.53;;;;;;;4.71;50.46;100125.91;5021993;28;20049;-67
2022/03/21 01:09:28;;;;;;;13.02;7.00;;;;;;;4.50;51.01;100107.16;5017387;28;20402;-67
2022/03/21 01:11:54;;;;;;;14.23;7.45;;;;;;;4.47;50.58;100112.78;5021879;28;20017;-67
2022/03/21 01:14:19;;;;;;;18.67;7.50;;;;;;;4.61;50.40;100132.06;5018339;28;20761;-68
2022/03/21 01:16:44;;;;;;;15.05;8.23;;;;;;;4.50;50.35;100108.00;5022507;28;20037;-67
2022/03/21 01:19:10;;;;;;;12.40;7.13;;;;;;;4.60;50.34;100130.34;5021504;28;20030;-67
2022/03/21 01:21:35;;;;;;;12.15;6.72;;;;;;;4.61;50.19;100132.06;5019973;28;20038;-68
2022/03/21 01:24:01;;;;;;;11.60;6.95;;;;;;;4.69;50.82;100133.22;5021641;28;20040;-67
2022/03/21 01:26:27;;;;;;;16.45;7.47;;;;;;;4.65;49.70;100137.16;5019942;28;20041;-68
2022/03/21 01:28:52;;;;;;;14.60;7.47;;;;;;;4.65;49.75;100131.81;5020806;28;20435;-67
2022/03/21 01:31:17;;;;;;;14.05;7.63;;;;;;;4.51;50.13;100122.28;5019303;28;20074;-67
2022/03/21 01:33:43;;;;;;;12.43;7.25;;;;;;;4.50;50.59;100133.97;5020434;28;20068;-68
2022/03/21 01:36:09;;;;;;;16.08;7.68;;;;;;;4.24;50.50;100112.06;5017324;28;20033;-67
2022/03/21 01:38:34;;;;;;;13.60;6.78;;;;;;;4.30;51.47;100139.19;5023765;28;20486;-67
2022/03/21 01:41:00;;;;;;;22.80;7.65;;;;;;;4.22;51.30;100136.31;5024535;28;20025;-67
2022/03/21 01:43:26;;;;;;;16.98;7.78;;;;;;;4.24;51.59;100136.19;5018906;28;20042;-67
2022/03/21 01:45:51;;;;;;;16.13;8.68;;;;;;;4.22;52.20;100148.84;5017773;28;20037;-67
2022/03/21 01:48:17;;;;;;;14.38;7.25;;;;;;;4.03;52.61;100133.47;5015728;28;20765;-68
2022/03/21 01:50:42;;;;;;;14.18;7.55;;;;;;;3.98;53.37;100149.94;5021535;28;20030;-67
2022/03/21 01:55:56;;;;;;;14.90;7.72;;;;;;;3.56;54.66;100133.75;5019360;28;20103;-67
2022/03/21 01:58:22;;;;;;;11.90;6.85;;;;;;;3.58;54.76;100163.94;5021999;28;20091;-67
2022/03/21 02:00:47;;;;;;;15.02;7.72;;;;;;;3.51;55.01;100147.53;5019711;28;20479;-68
2022/03/21 02:03:14;;;;;;;17.48;8.48;;;;;;;3.62;53.98;100143.97;5021894;28;20044;-68
2022/03/21 02:05:39;;;;;;;17.20;8.60;;;;;;;3.82;54.37;100160.22;5022827;28;20040;-68
2022/03/21 02:08:05;;;;;;;17.00;8.77;;;;;;;3.74;55.14;100134.91;5019222;28;20364;-67
2022/03/21 02:10:31;;;;;;;16.73;8.10;;;;;;;3.72;55.60;100139.56;5024502;28;20029;-68
2022/03/21 02:12:56;;;;;;;17.15;8.18;;;;;;;3.81;56.36;100161.22;5026521;28;20033;-67
2022/03/21 02:15:22;;;;;;;19.83;8.43;;;;;;;3.73;56.68;100162.69;5018568;28;20029;-67
2022/03/21 02:18:01;;;;;;;16.88;8.38;;;;;;;3.61;56.96;100147.63;5017197;28;20087;-67
2022/03/21 02:20:29;;;;;;;15.77;8.03;;;;;;;3.47;57.78;100156.78;5021988;28;20036;-67
2022/03/21 02:23:15;;;;;;;14.60;8.05;;;;;;;3.35;58.10;100155.09;5021110;28;20357;-67
2022/03/21 02:25:42;;;;;;;17.10;7.57;;;;;;;3.41;57.33;100151.94;5021153;28;20038;-67
2022/03/21 02:28:10;;;;;;;16.70;7.90;;;;;;;3.40;57.46;100150.22;5021068;28;20048;-67
2022/03/21 02:30:41;;;;;;;17.13;8.10;;;;;;;3.32;57.23;100149.16;5021922;28;20180;-67
2022/03/21 02:33:07;;;;;;;16.17;7.82;;;;;;;3.18;57.91;100161.81;5023626;28;20048;-67
2022/03/21 02:35:33;;;;;;;13.68;7.05;;;;;;;3.27;57.91;100163.75;5018273;28;20024;-67
2022/03/21 02:38:00;;;;;;;13.27;7.60;;;;;;;3.24;58.26;100158.63;5021728;28;20041;-67
2022/03/21 02:40:26;;;;;;;13.50;7.07;;;;;;;3.21;58.42;100155.38;5018440;28;20029;-67
2022/03/21 02:42:52;;;;;;;15.98;6.82;;;;;;;3.11;58.66;100160.59;5016938;28;20032;-67
2022/03/21 02:45:18;;;;;;;15.80;7.28;;;;;;;3.02;59.67;100156.84;5026212;28;20518;-67
2022/03/21 02:47:43;;;;;;;14.73;7.95;;;;;;;2.94;60.26;100153.06;5021773;28;20034;-67
2022/03/21 02:50:15;;;;;;;13.43;7.10;;;;;;;2.83;60.79;100161.94;5023270;28;20021;-67
2022/03/21 02:52:42;;;;;;;13.50;7.47;;;;;;;2.75;61.28;100159.00;5025297;28;20618;-67
2022/03/21 02:55:08;;;;;;;12.15;6.82;;;;;;;2.39;61.06;100120.81;5023225;28;20048;-67
2022/03/21 02:57:33;;;;;;;16.00;7.78;;;;;;;2.73;61.67;100159.13;5024953;28;20030;-67
2022/03/21 02:59:59;;;;;;;16.17;7.25;;;;;;;2.57;62.03;100162.16;5020356;28;20067;-68
2022/03/21 03:02:25;;;;;;;15.13;7.07;;;;;;;2.32;62.29;100149.81;5025173;28;20032;-67
2022/03/21 03:04:51;;;;;;;15.25;7.45;;;;;;;2.39;62.60;100153.72;5023371;28;20108;-67
2022/03/21 03:07:16;;;;;;;12.57;7.43;;;;;;;2.57;62.25;100150.63;5018965;28;20813;-67
2022/03/21 03:09:41;;;;;;;13.60;7.05;;;;;;;2.41;62.04;100150.91;5020424;28;20034;-67
2022/03/21 03:12:08;;;;;;;16.83;7.60;;;;;;;2.37;63.14;100169.00;5022935;28;20103;-68
2022/03/21 03:14:34;;;;;;;13.32;7.15;;;;;;;2.24;63.33;100165.56;5019671;28;20029;-67
2022/03/21 03:17:01;;;;;;;13.30;7.20;;;;;;;2.19;64.13;100163.25;5027427;28;20035;-68
2022/03/21 03:19:27;;;;;;;16.10;8.02;;;;;;;2.21;64.11;100164.97;5028139;28;20030;-67
2022/03/21 03:21:53;;;;;;;12.48;7.25;;;;;;;2.21;64.46;100163.13;5024368;28;20049;-67
2022/03/21 03:24:22;;;;;;;15.73;7.82;;;;;;;2.11;64.88;100165.66;5023673;28;20109;-67
2022/03/21 03:26:47;;;;;;;16.23;8.30;;;;;;;2.08;65.08;100167.72;5025764;28;20634;-67
2022/03/21 03:29:12;;;;;;;18.85;7.93;;;;;;;2.04;65.90;100175.06;5027007;28;20029;-67
2022/03/21 03:31:38;;;;;;;19.15;7.93;;;;;;;2.01;65.74;100179.81;5027455;28;20033;-68
2022/03/21 03:34:04;;;;;;;17.02;7.82;;;;;;;1.91;65.65;100142.28;5023599;28;20675;-67
2022/03/21 03:36:29;;;;;;;15.68;7.78;;;;;;;2.04;64.99;100137.72;5022604;28;20033;-67
2022/03/21 03:38:55;;;;;;;19.10;7.43;;;;;;;2.05;65.56;100138.59;5025698;28;20140;-67
2022/03/21 03:41:20;;;;;;;15.98;7.85;;;;;;;2.20;65.30;100158.75;5024375;28;20040;-67
2022/03/21 03:43:50;;;;;;;12.05;6.78;;;;;;;2.04;64.82;100143.03;5025271;28;20036;-67
2022/03/21 03:46:19;;;;;;;;;;;;;;;2.08;65.64;100168.56;5023360;28;20034;-69
2022/03/21 03:48:46;;;;;;;13.32;7.07;;;;;;;1.99;66.10;100169.22;5038336;28;20302;-68
2022/03/21 03:51:12;;;;;;;16.35;7.28;;;;;;;1.83;66.03;100180.19;5023535;28;20156;-67
2022/03/21 03:53:38;;;;;;;15.80;8.20;;;;;;;1.50;67.33;100175.53;5022195;28;20031;-67
2022/03/21 03:56:04;;;;;;;15.32;7.85;;;;;;;1.20;68.43;100162.59;5022051;28;20140;-67
2022/03/21 03:58:30;;;;;;;16.55;7.82;;;;;;;1.22;69.03;100182.84;5021543;28;20145;-67
2022/03/21 04:00:56;;;;;;;15.73;7.90;;;;;;;1.21;69.08;100186.50;5021629;28;20112;-67
2022/03/21 04:06:05;;;;;;;15.50;7.50;;;;;;;1.00;69.30;100183.53;5023141;28;20036;-67
2022/03/21 04:08:30;;;;;;;15.25;7.75;;;;;;;0.93;69.82;100178.75;5020331;28;20026;-67
2022/03/21 04:10:56;;;;;;;16.52;7.88;;;;;;;0.84;69.67;100183.78;5022197;28;20499;-67
2022/03/21 04:13:21;;;;;;;16.35;7.25;;;;;;;0.86;69.69;100186.31;5023869;28;20521;-67
2022/03/21 04:15:46;;;;;;;18.52;7.53;;;;;;;0.97;68.96;100183.75;5021868;28;20418;-67
2022/03/21 04:18:12;;;;;;;13.93;6.88;;;;;;;1.01;69.16;100187.91;5024045;28;20044;-67
2022/03/21 04:20:39;;;;;;;15.63;7.72;;;;;;;1.12;68.66;100188.94;5017128;28;20069;-67
2022/03/21 04:23:05;;;;;;;15.35;7.38;;;;;;;1.23;68.62;100181.91;5017393;28;20021;-70
2022/03/21 04:25:30;;;;;;;17.17;7.30;;;;;;;1.31;68.46;100184.03;5022461;28;20033;-72
2022/03/21 04:27:56;;;;;;;15.45;7.40;;;;;;;1.38;68.16;100187.94;5021626;28;20017;-70
2022/03/21 04:30:23;;;;;;;16.48;7.85;;;;;;;1.36;68.05;100195.19;5021605;28;20036;-71
2022/03/21 04:32:49;;;;;;;14.07;7.25;;;;;;;1.37;68.11;100190.72;5025185;28;20498;-70
2022/03/21 04:35:14;;;;;;;13.90;7.30;;;;;;;1.41;67.51;100192.19;5026902;28;20033;-72
2022/03/21 04:37:40;;;;;;;16.45;8.10;;;;;;;1.40;67.46;100180.69;5023522;28;20040;-75
2022/03/21 04:40:07;;;;;;;17.08;7.10;;;;;;;1.40;67.26;100191.34;5023912;28;20036;-73
2022/03/21 04:42:37;;;;;;;12.70;6.72;;;;;;;1.41;67.03;100179.72;5022953;28;20138;-71
2022/03/21 04:45:04;;;;;;;12.30;7.35;;;;;;;1.52;66.91;100201.13;5026701;28;20880;-72
2022/03/21 04:47:30;;;;;;;14.18;6.40;;;;;;;1.39;66.07;100181.66;5027228;28;20028;-73
2022/03/21 04:49:55;;;;;;;15.07;7.57;;;;;;;1.45;66.14;100183.88;5023423;28;21033;-71
2022/03/21 04:52:21;;;;;;;15.13;6.55;;;;;;;1.40;65.94;100188.69;5021759;28;20017;-73
2022/03/21 04:54:48;;;;;;;16.08;7.53;;;;;;;1.54;66.00;100212.53;5029729;28;20139;-74
2022/03/21 04:57:13;;;;;;;13.57;6.65;;;;;;;1.59;65.29;100200.69;5024391;28;20094;-70
2022/03/21 04:59:39;;;;;;;13.02;6.72;;;;;;;1.59;65.12;100211.34;5021904;28;20048;-70
2022/03/21 05:02:04;;;;;;;14.48;7.65;;;;;;;1.54;64.78;100203.69;5030459;28;20048;-71
2022/03/21 05:04:31;;;;;;;15.02;7.00;;;;;;;1.57;65.25;100215.94;5024177;28;20029;-73
2022/03/21 05:06:57;;;;;;;11.60;6.90;;;;;;;1.35;65.00;100171.31;5024359;28;20029;-72
2022/03/21 05:09:22;;;;;;;14.65;6.90;;;;;;;1.46;64.74;100201.56;5023571;28;20079;-74
2022/03/21 05:11:48;;;;;;;13.15;7.00;;;;;;;1.54;64.54;100214.34;5026073;28;20033;-74
2022/03/21 05:14:14;;;;;;;16.98;6.90;;;;;;;1.50;64.48;100199.56;5024599;28;20494;-73
2022/03/21 05:16:39;;;;;;;12.23;6.78;;;;;;;1.63;63.29;100205.69;5023172;28;20036;-72
2022/03/21 05:19:05;;;;;;;13.32;6.70;;;;;;;1.64;62.79;100203.88;5021866;28;20034;-73
2022/03/21 05:21:30;;;;;;;14.30;6.95;;;;;;;1.74;63.61;100231.59;5017253;28;20033;-73
2022/03/21 05:32:08;;;;;;;15.38;6.85;;;;;;;1.84;62.94;100226.44;5020977;28;20036;-72
2022/03/21 05:37:18;;;;;;;15.57;7.43;;;;;;;2.01;62.07;100235.84;5024124;28;20051;-71
2022/03/21 05:42:27;;;;;;;13.65;7.53;;;;;;;2.23;61.48;100240.44;5024240;28;20044;-71
2022/03/21 05:44:53;;;;;;;13.35;7.72;;;;;;;2.11;61.57;100208.38;5027891;28;20033;-64
2022/03/21 05:47:18;;;;;;;12.63;6.85;;;;;;;2.40;60.73;100251.56;5024022;28;20399;-71
2022/03/21 05:49:43;;;;;;;12.43;7.13;;;;;;;2.48;60.48;100248.31;5023066;28;20171;-71
2022/03/21 05:52:09;;;;;;;14.75;7.18;;;;;;;2.56;59.83;100239.72;5027514;28;20114;-70
2022/03/21 05:54:36;;;;;;;13.25;6.72;;;;;;;2.83;59.07;100242.97;5017621;28;20573;-72
2022/03/21 05:57:01;;;;;;;14.77;6.93;;;;;;;3.29;58.10;100251.88;5024357;28;20018;-73
2022/03/21 06:02:11;;;;;;;16.95;8.05;;;;;;;4.18;55.59;100237.50;5025433;28;20086;-73
2022/03/21 06:04:36;;;;;;;10.82;6.50;;;;;;;4.70;53.82;100250.22;5023580;28;20033;-73
2022/03/21 06:07:01;;;;;;;14.57;7.68;;;;;;;5.23;52.19;100228.63;5020057;28;20030;-73
2022/03/21 06:09:27;;;;;;;12.43;6.80;;;;;;;5.64;51.03;100224.16;5018497;28;20033;-73
2022/03/21 06:11:52;;;;;;;14.65;7.00;;;;;;;6.11;49.69;100241.38;5023214;28;20029;-73
2022/03/21 06:14:18;;;;;;;12.45;7.20;;;;;;;6.57;47.94;100261.34;5022834;28;20808;-73
2022/03/21 06:16:44;;;;;;;13.65;7.43;;;;;;;7.13;46.97;100259.72;5023868;28;20075;-74
2022/03/21 06:19:10;;;;;;;17.58;7.43;;;;;;;7.30;45.77;100238.44;5025724;28;20037;-74
2022/03/21 06:21:35;;;;;;;13.55;6.60;;;;;;;7.69;45.59;100245.34;5024050;28;20029;-75
2022/03/21 06:24:01;;;;;;;13.27;7.55;;;;;;;8.21;44.52;100255.53;5023823;28;20059;-74
2022/03/21 06:26:26;;;;;;;16.02;7.75;;;;;;;8.48;43.55;100251.13;5022411;28;20036;-73
2022/03/21 06:28:51;;;;;;;13.77;7.85;;;;;;;8.65;43.64;100234.09;5027174;28;20032;-74
2022/03/21 06:31:17;;;;;;;12.48;6.78;;;;;;;9.44;41.78;100264.66;5025452;28;20467;-74
2022/03/21 06:33:42;;;;;;;15.45;7.68;;;;;;;9.92;40.81;100249.69;5024156;28;20033;-73
2022/03/21 06:36:08;;;;;;;13.75;7.50;;;;;;;10.55;38.99;100267.28;5023030;28;20060;-72
2022/03/21 06:38:34;;;;;;;11.75;7.30;;;;;;;10.92;38.59;100261.38;5030115;28;20431;-71
2022/03/21 06:41:01;;;;;;;12.57;7.35;;;;;;;11.58;37.67;100266.69;5028078;28;20124;-72
2022/03/21 06:43:27;;;;;;;13.65;7.78;;;;;;;11.74;36.97;100269.34;5028441;28;20052;-74
2022/03/21 06:45:54;;;;;;;13.65;7.75;;;;;;;12.09;35.52;100261.78;5024105;28;21658;-73
2022/03/21 06:48:21;;;;;;;14.05;7.85;;;;;;;12.32;35.31;100267.25;5029035;28;20104;-73
2022/03/21 06:50:47;;;;;;;12.68;8.05;;;;;;;12.89;33.54;100266.84;5039521;28;20131;-71
2022/03/21 06:53:14;;;;;;;15.02;7.88;;;;;;;13.86;32.47;100274.22;5042146;28;20052;-71
2022/03/21 06:55:40;;;;;;;11.55;7.03;;;;;;;12.80;33.83;100265.22;5043296;28;20450;-69
2022/03/21 06:58:08;;;;;;;15.25;7.85;;;;;;;13.08;33.67;100261.94;5043289;28;20045;-69
2022/03/21 07:00:34;;;;;;;16.10;7.90;;;;;;;13.51;32.92;100268.47;5026397;28;20073;-72
2022/03/21 07:03:00;;;;;;;17.25;8.43;;;;;;;13.62;32.74;100272.59;5026544;28;20036;-69
2022/03/21 07:05:26;;;;;;;12.48;8.18;;;;;;;14.07;33.01;100254.41;5029863;28;20037;-70
2022/03/21 07:07:52;;;;;;;12.40;7.97;;;;;;;14.39;31.96;100257.69;5030452;28;20033;-73
2022/03/21 07:10:17;;;;;;;10.77;7.40;;;;;;;14.75;31.19;100267.72;5027883;28;20022;-72
2022/03/21 07:12:43;;;;;;;14.75;8.25;;;;;;;14.62;32.02;100282.06;5024568;28;20032;-72
2022/03/21 07:15:08;;;;;;;13.93;8.10;;;;;;;15.33;30.05;100276.63;5025851;28;20063;-71
2022/03/21 07:17:33;;;;;;;13.57;8.07;;;;;;;16.72;28.15;100259.25;5026358;28;20183;-72
2022/03/21 07:19:59;;;;;;;13.73;8.18;;;;;;;17.04;27.31;100269.38;5023585;28;20025;-71
2022/03/21 07:22:24;;;;;;;13.23;8.15;;;;;;;16.29;28.31;100276.75;5029179;28;20037;-72
2022/03/21 07:24:50;;;;;;;15.25;8.07;;;;;;;17.31;27.15;100275.69;5032626;28;20028;-71
2022/03/21 07:27:15;;;;;;;11.73;7.95;;;;;;;17.30;27.26;100276.75;5029376;28;20032;-70
2022/03/21 07:29:41;;;;;;;13.30;8.10;;;;;;;17.39;26.89;100273.78;5024806;28;20036;-71
2022/03/21 07:32:07;;;;;;;14.35;8.30;;;;;;;17.39;27.17;100282.00;5032246;28;20517;-70
2022/03/21 07:34:32;;;;;;;13.85;8.60;;;;;;;18.05;26.05;100287.38;5025323;28;20025;-71
2022/03/21 07:36:58;;;;;;;15.45;7.97;;;;;;;19.69;25.16;100271.13;5027649;28;20025;-71
2022/03/21 07:39:23;;;;;;;12.90;8.57;;;;;;;20.02;24.19;100279.00;5026380;28;20029;-71
2022/03/21 07:41:48;;;;;;;11.52;8.00;;;;;;;19.77;25.24;100290.03;5031373;28;20085;-71
2022/03/21 07:47:17;;;;;;;13.75;8.18;;;;;;;20.25;24.51;100274.69;5024825;28;20033;-70
2022/03/21 07:47:17;;;;;;;14.02;8.45;;;;;;;20.16;23.74;100270.59;5030043;28;20041;-71
2022/03/21 07:49:53;;;;;;;13.60;8.57;;;;;;;20.36;23.51;100277.50;5026678;28;20026;-72
2022/03/21 07:52:20;;;;;;;14.00;8.82;;;;;;;19.79;23.41;100285.16;5022848;28;20037;-71
2022/03/21 07:54:52;;;;;;;12.52;8.75;;;;;;;20.26;23.40;100281.88;5020239;28;20029;-71
2022/03/21 07:57:17;;;;;;;13.27;8.32;;;;;;;21.93;21.63;100282.84;5024057;28;20029;-71
2022/03/21 07:59:43;;;;;;;13.20;8.88;;;;;;;20.92;22.47;100288.38;5026424;28;20510;-69
2022/03/21 08:02:08;;;;;;;14.45;9.20;;;;;;;20.01;23.74;100292.94;5031080;28;20029;-69
2022/03/21 08:04:33;;;;;;;11.82;8.45;;;;;;;21.39;22.27;100296.78;5027934;28;20026;-69
2022/03/21 08:06:59;;;;;;;12.18;8.25;;;;;;;20.92;22.34;100291.13;5032547;28;20048;-69
2022/03/21 08:09:27;;;;;;;12.30;8.05;;;;;;;21.70;21.18;100289.25;5029272;28;20454;-69
2022/03/21 08:11:54;;;;;;;13.30;8.00;;;;;;;22.00;20.14;100292.66;5027507;28;20463;-72
2022/03/21 08:14:20;;;;;;;12.70;8.15;;;;;;;21.81;21.04;100289.22;5027829;28;20029;-71
2022/03/21 08:16:45;;;;;;;10.15;7.78;;;;;;;22.16;20.64;100293.81;5026389;28;20084;-72
2022/03/21 08:19:10;;;;;;;12.80;8.38;;;;;;;21.36;21.08;100297.22;5025296;28;20084;-70
2022/03/21 08:21:36;;;;;;;11.13;7.53;;;;;;;22.08;20.65;100294.22;5026451;28;20741;-70
2022/03/21 08:24:03;;;;;;;10.52;7.75;;;;;;;22.60;19.72;100301.66;5022665;28;20032;-71
2022/03/21 08:26:28;;;;;;;11.98;7.72;;;;;;;23.33;19.03;100277.88;5025974;28;20612;-71
2022/03/21 08:28:54;;;;;;;14.10;8.50;;;;;;;21.86;20.26;100283.00;5026830;28;20054;-73
2022/03/21 08:31:19;;;;;;;13.90;8.57;;;;;;;22.44;20.31;100293.06;5023717;28;20140;-72
2022/03/21 08:33:44;;;;;;;11.57;7.97;;;;;;;22.46;20.26;100287.31;5028442;28;20029;-71
2022/03/21 08:36:12;;;;;;;10.30;7.55;;;;;;;22.57;20.29;100288.34;5027689;28;20413;-75
2022/03/21 08:38:38;;;;;;;15.50;8.10;;;;;;;22.14;21.07;100295.16;5022892;28;20510;-74
2022/03/21 08:41:03;;;;;;;11.45;7.40;;;;;;;22.49;20.37;100281.31;5041697;28;20032;-74
2022/03/21 08:43:28;;;;;;;11.98;8.27;;;;;;;21.62;20.63;100283.00;5027645;28;20030;-73
2022/03/21 08:45:54;;;;;;;11.68;8.05;;;;;;;22.47;20.63;100281.53;5029455;28;20028;-74
2022/03/21 08:49:23;;;;;;;13.82;8.23;;;;;;;22.16;21.08;100293.00;5025249;28;20025;-74
2022/03/21 08:51:04;;;;;;;12.77;7.68;;;;;;;22.67;20.83;100280.28;5028507;28;20036;-74
2022/03/21 08:53:30;;;;;;;12.75;8.32;;;;;;;22.31;21.25;100276.81;5025497;28;20029;-74
2022/03/21 08:55:55;;;;;;;11.90;8.30;;;;;;;23.43;20.85;100278.03;5023671;28;20510;-72
2022/03/21 08:58:20;;;;;;;14.40;7.97;;;;;;;24.31;19.54;100286.47;5023900;28;20071;-72
2022/03/21 09:00:45;;;;;;;10.70;8.20;;;;;;;23.99;19.17;100283.56;5025809;28;20037;-71
2022/03/21 09:03:11;;;;;;;11.48;8.55;;;;;;;24.14;20.12;100278.25;5021071;28;20113;-72
2022/03/21 09:05:36;;;;;;;13.13;8.48;;;;;;;22.70;19.85;100282.53;5023686;28;20034;-72
2022/03/21 09:08:01;;;;;;;10.43;7.97;;;;;;;23.76;19.52;100270.81;5023445;28;20039;-72
2022/03/21 09:10:27;;;;;;;12.85;8.55;;;;;;;24.39;19.47;100263.03;5020919;28;20075;-72
2022/03/21 09:12:53;;;;;;;16.92;8.65;;;;;;;24.80;19.30;100275.44;5026255;28;20029;-74
2022/03/21 09:15:19;;;;;;;11.98;8.55;;;;;;;24.44;19.34;100265.88;5024696;28;20033;-74
2022/03/21 09:17:44;;;;;;;12.80;8.55;;;;;;;24.81;18.48;100249.44;5022877;28;20033;-74
2022/03/21 09:20:13;;;;;;;11.02;7.80;;;;;;;24.39;18.93;100274.09;5019101;28;20147;-74
2022/03/21 09:22:38;;;;;;;13.32;8.50;;;;;;;24.33;18.57;100269.63;5022435;28;20032;-70
2022/03/21 09:25:04;;;;;;;12.30;8.95;;;;;;;24.60;18.83;100276.06;5027254;28;20021;-72
2022/03/21 09:27:30;;;;;;;13.27;8.90;;;;;;;24.02;19.54;100277.53;5022495;28;20150;-73
2022/03/21 09:29:55;;;;;;;11.88;8.80;;;;;;;23.62;19.52;100282.19;5019116;28;20150;-72
2022/03/21 09:32:21;;;;;;;14.20;8.73;;;;;;;23.54;20.08;100268.81;5011533;28;20140;-73
2022/03/21 09:34:46;;;;;;;12.73;9.05;;;;;;;23.88;19.66;100276.25;5037921;28;20560;-72
2022/03/21 09:37:11;;;;;;;14.82;9.50;;;;;;;24.15;19.78;100277.13;5018162;28;20052;-72
2022/03/21 09:39:37;;;;;;;18.55;8.98;;;;;;;24.24;19.42;100259.00;5023831;28;20083;-75
2022/03/21 09:42:03;;;;;;;12.40;8.75;;;;;;;24.71;19.29;100272.31;5026627;28;20037;-74
2022/03/21 09:44:29;;;;;;;13.50;9.13;;;;;;;25.30;18.02;100267.88;5018771;28;20034;-75
2022/03/21 09:46:55;;;;;;;12.95;8.40;;;;;;;26.12;17.93;100257.31;5023285;28;20025;-74
2022/03/21 09:49:25;;;;;;;10.88;8.25;;;;;;;25.66;18.43;100243.19;5020160;28;20073;-73
2022/03/21 09:51:53;;;;;;;12.82;9.00;;;;;;;26.11;17.92;100256.47;5011357;28;21068;-75
2022/03/21 09:54:19;;;;;;;15.27;9.50;;;;;;;26.16;18.16;100259.28;5019710;28;20033;-74
2022/03/21 09:56:44;;;;;;;14.52;9.52;;;;;;;26.66;17.59;100262.50;5022015;28;20184;-73
2022/03/21 09:59:10;;;;;;;14.85;9.18;;;;;;;26.97;17.22;100265.34;5022900;28;20104;-74
2022/03/21 10:01:37;;;;;;;13.85;9.82;;;;;;;25.85;17.86;100241.66;5022317;28;20031;-74
2022/03/21 10:04:03;;;;;;;14.02;9.43;;;;;;;24.63;18.71;100249.81;5022930;28;20144;-74
2022/03/21 10:06:37;;;;;;;14.20;9.13;;;;;;;22.39;21.06;100243.31;5023908;28;20033;-72
2022/03/21 10:09:06;;;;;;;18.13;9.18;;;;;;;25.05;19.38;100249.91;5016449;28;20051;-73
2022/03/21 10:11:32;;;;;;;13.73;8.85;;;;;;;25.51;18.97;100257.78;5023243;28;20591;-73
2022/03/21 10:14:00;;;;;;;13.65;8.63;;;;;;;25.33;19.12;100242.41;5039893;28;20100;-74
2022/03/21 10:16:25;;;;;;;12.52;9.57;;;;;;;25.24;18.80;100246.78;5019082;28;20575;-71
2022/03/21 10:18:53;;;;;;;15.85;9.80;;;;;;;22.94;20.25;100253.72;5023280;28;20021;-74
2022/03/21 10:21:20;;;;;;;16.05;9.32;;;;;;;22.56;22.56;100251.66;5023733;28;20136;-71
2022/03/21 10:24:02;;;;;;;13.10;9.13;;;;;;;23.54;20.70;100240.34;5022161;28;20166;-73
2022/03/21 10:26:31;;;;;;;12.68;9.30;;;;;;;24.78;20.30;100241.63;5024544;28;20047;-71
2022/03/21 10:28:58;;;;;;;;;;;;;;;25.92;19.41;100236.69;5025520;28;20099;-70
2022/03/21 10:31:42;;;;;;;16.17;9.32;;;;;;;27.34;18.08;100234.53;5024285;28;19924;-71
2022/03/21 10:34:12;;;;;;;13.43;9.27;;;;;;;26.95;17.75;100234.22;5021892;28;20041;-71
2022/03/21 10:36:58;;;;;;;12.15;9.18;;;;;;;27.64;16.62;100239.22;5023174;28;20028;-72
2022/03/21 10:39:24;;;;;;;16.88;9.18;;;;;;;26.39;18.27;100233.00;5024261;28;20033;-71
2022/03/21 10:41:54;;;;;;;14.55;9.68;;;;;;;26.29;18.59;100227.41;5024664;28;20399;-71
2022/03/21 10:44:20;;;;;;;12.90;9.18;;;;;;;26.11;19.44;100236.22;5022003;28;20112;-71
2022/03/21 10:46:59;;;;;;;14.18;10.05;;;;;;;21.91;22.03;100243.69;5026125;28;20473;-71
2022/03/21 10:49:30;;;;;;;13.57;9.57;;;;;;;22.02;22.37;100248.34;5020033;28;20049;-71
2022/03/21 10:51:55;;;;;;;15.75;10.45;;;;;;;21.90;23.53;100237.31;5025332;28;20104;-70
2022/03/21 10:54:48;;;;;;;13.57;10.15;;;;;;;21.94;22.43;100244.03;5015574;28;20127;-72
2022/03/21 10:57:31;;;;;;;14.60;10.10;;;;;;;21.13;23.49;100243.81;5037284;28;20482;-71
2022/03/21 11:00:16;;;;;;;17.60;10.18;;;;;;;21.26;24.38;100248.25;5019062;28;20033;-72
2022/03/21 11:02:51;;;;;;;13.35;9.93;;;;;;;21.51;24.56;100239.78;5023752;28;20053;-71
2022/03/21 11:05:18;;;;;;;17.33;9.75;;;;;;;21.32;25.07;100232.69;5030806;28;20040;-71
2022/03/21 11:07:46;;;;;;;15.20;10.40;;;;;;;21.08;24.97;100232.66;5033399;28;20045;-72
2022/03/21 11:10:11;;;;;;;14.27;9.95;;;;;;;21.27;24.31;100227.06;5031369;28;20100;-72
2022/03/21 11:12:39;;;;;;;19.83;10.80;;;;;;;21.43;24.33;100223.59;5031067;28;20471;-72
2022/03/21 11:15:06;;;;;;;16.20;9.77;;;;;;;21.87;24.36;100219.34;5032256;28;20053;-71
2022/03/21 11:17:32;;;;;;;16.10;10.52;;;;;;;22.41;23.02;100224.63;5033497;28;20056;-71
2022/03/21 11:19:59;;;;;;;15.23;10.57;;;;;;;22.13;23.31;100219.88;5028124;28;20453;-72
2022/03/21 11:22:24;;;;;;;16.63;10.23;;;;;;;23.01;22.07;100225.16;5026470;28;20033;-71
2022/03/21 11:24:50;;;;;;;15.85;11.18;;;;;;;23.11;22.24;100222.56;5029100;28;20025;-71
2022/03/21 11:27:32;;;;;;;16.90;11.32;;;;;;;24.37;20.95;100219.06;5027232;28;20511;-71
2022/03/21 11:30:06;;;;;;;14.15;9.88;;;;;;;25.38;20.30;100213.91;5024472;28;20100;-71
2022/03/21 11:32:46;;;;;;;15.50;10.55;;;;;;;24.17;20.14;100210.53;5025922;28;20036;-71
2022/03/21 11:35:17;;;;;;;15.05;10.82;;;;;;;25.31;20.41;100206.66;5029724;28;20124;-72
2022/03/21 11:37:43;;;;;;;13.77;9.93;;;;;;;24.27;20.38;100200.41;5020784;28;20183;-71
2022/03/21 11:40:27;;;;;;;17.23;11.05;;;;;;;23.97;20.70;100205.56;5025020;28;20479;-71
2022/03/21 11:42:55;;;;;;;14.10;10.18;;;;;;;22.93;21.28;100218.94;5023650;28;20052;-72